createdAt,value
2019-04-09T00:01:22.224Z,8.02
2019-04-09T00:03:52.671Z,8.06
2019-04-09T00:06:23.238Z,8.11
2019-04-09T00:08:54.256Z,8.16
2019-04-09T00:11:24.611Z,8.15
2019-04-09T00:13:57.391Z,8.13
2019-04-09T00:16:27.622Z,8.14
2019-04-09T00:18:58.346Z,8.11
2019-04-09T00:21:29.555Z,8.09
2019-04-09T00:24:00.284Z,8.05
2019-04-09T00:26:43.226Z,8.02
2019-04-09T00:29:03.979Z,7.99
2019-04-09T00:31:34.792Z,7.99
2019-04-09T00:34:05.017Z,8.00
2019-04-09T00:36:35.762Z,7.99
2019-04-09T00:39:07.976Z,8.04
2019-04-09T00:41:38.282Z,8.04
2019-04-09T00:44:08.555Z,8.05
2019-04-09T00:46:38.751Z,8.02
2019-04-09T00:49:09.910Z,8.03
2019-04-09T00:51:41.534Z,8.03
2019-04-09T00:54:12.867Z,8.01
2019-04-09T00:56:54.998Z,8.04
2019-04-09T00:59:15.697Z,8.04
2019-04-09T01:01:46.331Z,8.05
2019-04-09T01:04:16.960Z,8.06
2019-04-09T01:06:47.755Z,8.02
2019-04-09T01:09:18.893Z,8.05
2019-04-09T01:11:49.959Z,8.02
2019-04-09T01:14:21.939Z,8.03
2019-04-09T01:16:52.569Z,8.06
2019-04-09T01:19:24.830Z,8.08
2019-04-09T01:21:56.132Z,8.13
2019-04-09T01:24:34.095Z,8.20
2019-04-09T01:27:13.559Z,8.19
2019-04-09T01:29:43.383Z,8.22
2019-04-09T01:32:39.647Z,8.21
2019-04-09T01:35:21.620Z,8.21
2019-04-09T01:37:57.671Z,8.15
2019-04-09T01:40:47.088Z,8.15
2019-04-09T01:43:36.437Z,8.16
2019-04-09T01:46:22.574Z,8.24
2019-04-09T01:49:17.499Z,8.27
2019-04-09T01:52:05.364Z,8.32
2019-04-09T01:54:44.582Z,8.34
2019-04-09T01:57:31.687Z,8.34
2019-04-09T02:00:30.964Z,8.31
2019-04-09T02:03:31.349Z,8.28
2019-04-09T02:06:40.143Z,8.23
2019-04-09T02:09:28.616Z,8.21
2019-04-09T02:12:10.271Z,8.20
2019-04-09T02:14:56.493Z,8.35
2019-04-09T02:20:04.302Z,8.42
2019-04-09T02:22:53.390Z,8.33
2019-04-09T02:25:37.149Z,8.34
2019-04-09T02:28:37.826Z,8.27
2019-04-09T02:31:39.215Z,8.24
2019-04-09T02:34:27.680Z,8.19
2019-04-09T02:37:19.946Z,8.12
2019-04-09T02:40:08.199Z,8.14
2019-04-09T02:42:53.485Z,8.20
2019-04-09T02:45:49.755Z,8.19
2019-04-09T02:48:41.928Z,8.15
2019-04-09T02:51:32.002Z,8.12
2019-04-09T02:54:18.604Z,8.11
2019-04-09T02:57:19.818Z,8.15
2019-04-09T03:00:13.068Z,8.28
2019-04-09T03:03:06.614Z,8.40
2019-04-09T03:05:59.614Z,8.47
2019-04-09T03:08:51.707Z,8.57
2019-04-09T03:11:29.653Z,8.61
2019-04-09T03:14:19.217Z,8.60
2019-04-09T03:17:20.457Z,8.63
2019-04-09T03:20:08.743Z,8.67
2019-04-09T03:22:46.170Z,8.68
2019-04-09T03:25:27.194Z,8.63
2019-04-09T03:28:26.722Z,8.64
2019-04-09T03:31:18.014Z,8.64
2019-04-09T03:34:11.706Z,8.65
2019-04-09T03:36:59.816Z,8.60
2019-04-09T03:39:57.972Z,8.49
2019-04-09T03:42:53.533Z,8.40
2019-04-09T03:46:01.175Z,8.33
2019-04-09T03:48:50.356Z,8.25
2019-04-09T03:51:31.419Z,8.18
2019-04-09T03:54:33.205Z,8.15
2019-04-09T03:57:21.866Z,8.11
2019-04-09T04:00:06.002Z,8.13
2019-04-09T04:02:46.808Z,8.21
2019-04-09T04:05:42.888Z,8.18
2019-04-09T04:08:39.879Z,8.15
2019-04-09T04:11:23.369Z,8.13
2019-04-09T04:14:32.494Z,8.10
2019-04-09T04:17:25.307Z,8.02
2019-04-09T04:20:18.276Z,7.98
2019-04-09T04:23:20.034Z,7.90
2019-04-09T04:26:25.210Z,7.87
2019-04-09T04:29:33.153Z,7.90
2019-04-09T04:32:21.085Z,7.97
2019-04-09T04:35:08.100Z,7.96
2019-04-09T04:38:00.165Z,8.01
2019-04-09T04:40:54.551Z,8.05
2019-04-09T04:43:33.270Z,8.08
2019-04-09T04:46:17.777Z,8.15
2019-04-09T04:49:07.418Z,8.21
2019-04-09T04:51:51.321Z,8.27
2019-04-09T04:54:39.901Z,8.35
2019-04-09T04:57:16.583Z,8.34
2019-04-09T05:00:13.792Z,8.31
2019-04-09T05:03:20.125Z,8.38
2019-04-09T05:06:17.853Z,8.40
2019-04-09T05:08:55.551Z,8.39
2019-04-09T05:11:50.766Z,8.39
2019-04-09T05:14:42.448Z,8.41
2019-04-09T05:17:38.459Z,8.44
2019-04-09T05:20:29.106Z,8.48
2019-04-09T05:23:19.155Z,8.48
2019-04-09T05:26:07.690Z,8.54
2019-04-09T05:29:03.535Z,8.65
2019-04-09T05:31:48.162Z,8.70
2019-04-09T05:34:28.282Z,8.70
2019-04-09T05:37:19.143Z,8.75
2019-04-09T05:40:02.166Z,8.76
2019-04-09T05:42:46.071Z,8.80
2019-04-09T05:45:23.502Z,8.81
2019-04-09T05:48:12.985Z,8.78
2019-04-09T05:50:59.309Z,8.81
2019-04-09T05:53:44.931Z,8.81
2019-04-09T05:56:47.450Z,8.85
2019-04-09T05:59:35.417Z,8.88
2019-04-09T06:02:27.728Z,8.89
2019-04-09T06:05:10.783Z,8.94
2019-04-09T06:07:49.318Z,8.98
2019-04-09T06:10:19.826Z,9.06
2019-04-09T06:12:51.243Z,9.13
2019-04-09T06:15:23.192Z,9.19
2019-04-09T06:17:54.018Z,9.28
2019-04-09T06:20:25.610Z,9.29
2019-04-09T06:22:57.306Z,9.35
2019-04-09T06:25:27.879Z,9.34
2019-04-09T06:27:59.163Z,9.35
2019-04-09T06:30:29.446Z,9.36
2019-04-09T06:33:31.342Z,9.41
2019-04-09T06:36:12.269Z,9.42
2019-04-09T06:38:58.532Z,9.43
2019-04-09T06:41:51.992Z,9.53
2019-04-09T06:45:09.957Z,9.64
2019-04-09T06:47:59.443Z,9.73
2019-04-09T06:50:53.317Z,9.92
2019-04-09T06:53:40.228Z,10.05
2019-04-09T06:56:33.515Z,10.14
2019-04-09T06:59:26.914Z,10.14
2019-04-09T07:01:57.955Z,10.14
2019-04-09T07:04:48.250Z,10.05
2019-04-09T07:07:37.833Z,10.00
2019-04-09T07:10:42.623Z,9.89
2019-04-09T07:13:49.964Z,9.92
2019-04-09T07:16:43.533Z,9.92
2019-04-09T07:19:32.802Z,9.88
2019-04-09T07:22:21.323Z,9.99
2019-04-09T07:25:08.369Z,10.07
2019-04-09T07:27:56.520Z,10.13
2019-04-09T07:30:42.440Z,10.29
2019-04-09T07:33:37.094Z,10.28
2019-04-09T07:36:19.820Z,10.37
2019-04-09T07:39:23.562Z,10.51
2019-04-09T07:42:15.355Z,10.70
2019-04-09T07:44:57.414Z,10.94
2019-04-09T07:47:41.803Z,11.21
2019-04-09T07:50:21.892Z,11.23
2019-04-09T07:53:20.287Z,11.19
2019-04-09T07:56:28.081Z,11.23
2019-04-09T07:59:06.442Z,11.17
2019-04-09T08:01:49.817Z,11.14
2019-04-09T08:04:30.205Z,11.07
2019-04-09T08:07:23.275Z,10.85
2019-04-09T08:10:15.654Z,10.80
2019-04-09T08:12:54.507Z,10.64
2019-04-09T08:15:49.788Z,10.52
2019-04-09T08:18:27.854Z,10.53
2019-04-09T08:21:18.013Z,10.63
2019-04-09T08:24:14.263Z,10.73
2019-04-09T08:27:02.145Z,10.69
2019-04-09T08:30:03.243Z,10.74
2019-04-09T08:32:47.612Z,10.93
2019-04-09T08:35:28.341Z,10.97
2019-04-09T08:38:16.769Z,10.77
2019-04-09T08:41:01.267Z,10.87
2019-04-09T08:43:54.897Z,11.00
2019-04-09T08:46:39.908Z,11.08
2019-04-09T08:49:28.487Z,10.90
2019-04-09T08:52:36.081Z,11.01
2019-04-09T08:55:16.667Z,10.95
2019-04-09T08:57:50.863Z,10.92
2019-04-09T09:01:08.571Z,11.02
2019-04-09T09:03:27.956Z,11.29
2019-04-09T09:06:04.408Z,11.48
2019-04-09T09:08:59.409Z,11.39
2019-04-09T09:11:43.461Z,11.49
2019-04-09T09:14:19.229Z,11.96
2019-04-09T09:17:10.125Z,12.30
2019-04-09T09:20:03.324Z,12.49
2019-04-09T09:22:56.354Z,12.65
2019-04-09T09:25:49.548Z,12.72
2019-04-09T09:28:45.042Z,12.99
2019-04-09T09:31:29.739Z,13.14
2019-04-09T09:34:11.756Z,13.23
2019-04-09T09:37:01.828Z,13.54
2019-04-09T09:39:51.406Z,13.69
2019-04-09T09:42:44.610Z,13.80
2019-04-09T09:45:28.553Z,13.86
2019-04-09T09:48:17.956Z,14.47
2019-04-09T09:51:02.108Z,14.82
2019-04-09T09:53:53.664Z,15.17
2019-04-09T09:56:43.176Z,15.63
2019-04-09T09:59:36.792Z,15.78
2019-04-09T10:02:30.874Z,15.45
2019-04-09T10:05:07.118Z,15.68
2019-04-09T10:08:03.066Z,15.86
2019-04-09T10:10:59.272Z,16.14
2019-04-09T10:13:45.186Z,16.08
2019-04-09T10:16:33.295Z,15.98
2019-04-09T10:19:26.822Z,15.93
2019-04-09T10:22:02.926Z,15.58
2019-04-09T10:24:44.055Z,15.86
2019-04-09T10:27:22.602Z,16.21
2019-04-09T10:30:10.809Z,16.43
2019-04-09T10:33:00.247Z,16.54
2019-04-09T10:35:48.878Z,16.95
2019-04-09T10:38:47.626Z,17.21
2019-04-09T10:41:34.313Z,16.92
2019-04-09T10:44:19.458Z,16.90
2019-04-09T10:46:58.580Z,17.03
2019-04-09T10:49:47.148Z,17.23
2019-04-09T10:52:31.206Z,17.02
2019-04-09T10:55:39.573Z,16.58
2019-04-09T10:58:24.008Z,16.79
2019-04-09T11:01:13.949Z,17.22
2019-04-09T11:03:56.848Z,17.77
2019-04-09T11:06:49.577Z,18.21
2019-04-09T11:09:46.609Z,18.36
2019-04-09T11:12:33.514Z,19.66
2019-04-09T11:15:22.656Z,20.82
2019-04-09T11:18:18.456Z,22.11
2019-04-09T11:21:21.073Z,23.31
2019-04-09T11:24:09.492Z,22.95
2019-04-09T11:26:53.154Z,24.50
2019-04-09T11:29:55.040Z,22.96
2019-04-09T11:32:54.652Z,21.70
2019-04-09T11:35:40.895Z,20.11
2019-04-09T11:38:45.913Z,18.79
2019-04-09T11:41:39.321Z,18.38
2019-04-09T11:44:24.775Z,18.63
2019-04-09T11:47:19.844Z,21.22
2019-04-09T11:50:21.695Z,23.59
2019-04-09T11:53:17.589Z,24.71
2019-04-09T11:56:05.392Z,24.40
2019-04-09T11:58:53.585Z,21.50
2019-04-09T12:01:36.610Z,23.96
2019-04-09T12:04:27.700Z,24.06
2019-04-09T12:07:22.829Z,23.98
2019-04-09T12:10:21.313Z,26.50
2019-04-09T12:13:19.874Z,26.52
2019-04-09T12:16:08.934Z,26.52
2019-04-09T12:18:46.264Z,25.12
2019-04-09T12:21:35.287Z,23.98
2019-04-09T12:24:24.644Z,23.26
2019-04-09T12:27:26.467Z,25.88
2019-04-09T12:30:19.614Z,24.71
2019-04-09T12:33:11.721Z,26.02
2019-04-09T12:36:04.668Z,27.27
2019-04-09T12:38:53.653Z,29.77
2019-04-09T12:41:50.618Z,30.47
2019-04-09T12:44:40.119Z,30.25
2019-04-09T12:47:32.666Z,29.06
2019-04-09T12:50:22.074Z,29.75
2019-04-09T12:53:01.565Z,29.90
2019-04-09T12:55:53.412Z,27.10
2019-04-09T12:58:32.535Z,26.87
2019-04-09T13:01:14.288Z,23.85
2019-04-09T13:04:07.236Z,22.66
2019-04-09T13:06:55.967Z,21.56
2019-04-09T13:09:45.021Z,19.78
2019-04-09T13:12:34.219Z,20.81
2019-04-09T13:15:30.332Z,25.24
2019-04-09T13:18:19.649Z,24.60
2019-04-09T13:21:02.919Z,26.70
2019-04-09T13:23:52.842Z,22.84
2019-04-09T13:26:41.589Z,24.77
2019-04-09T13:29:29.376Z,21.77
2019-04-09T13:32:14.981Z,24.91
2019-04-09T13:35:03.890Z,22.74
2019-04-09T13:37:43.473Z,22.58
2019-04-09T13:40:33.037Z,26.55
2019-04-09T13:43:10.613Z,25.17
2019-04-09T13:46:06.604Z,27.68
2019-04-09T13:48:56.743Z,28.79
2019-04-09T13:51:46.527Z,28.34
2019-04-09T13:54:18.039Z,28.60
2019-04-09T13:56:49.375Z,29.91
2019-04-09T13:59:20.986Z,30.97
2019-04-09T14:01:52.666Z,31.71
2019-04-09T14:04:29.285Z,31.01
2019-04-09T14:06:59.553Z,30.12
2019-04-09T14:09:30.047Z,30.63
2019-04-09T14:12:00.958Z,31.85
2019-04-09T14:14:31.680Z,29.76
2019-04-09T14:17:03.072Z,30.58
2019-04-09T14:19:33.794Z,29.86
2019-04-09T14:22:06.646Z,30.27
2019-04-09T14:24:36.774Z,29.56
2019-04-09T14:27:07.868Z,27.30
2019-04-09T14:29:38.879Z,26.98
2019-04-09T14:32:09.910Z,28.85
2019-04-09T14:34:41.281Z,28.82
2019-04-09T14:37:11.973Z,28.45
2019-04-09T14:39:42.685Z,25.80
2019-04-09T14:42:13.073Z,26.31
2019-04-09T14:44:43.922Z,26.39
2019-04-09T14:47:15.854Z,28.68
2019-04-09T14:49:47.314Z,29.40
2019-04-09T14:52:18.404Z,30.12
2019-04-09T14:54:48.685Z,31.57
2019-04-09T14:57:19.489Z,30.47
2019-04-09T14:59:50.615Z,30.84
2019-04-09T15:02:22.201Z,31.46
2019-04-09T15:04:52.489Z,32.12
2019-04-09T15:07:23.403Z,31.64
2019-04-09T15:09:54.627Z,29.82
2019-04-09T15:12:25.900Z,31.06
2019-04-09T15:14:57.435Z,30.42
2019-04-09T15:17:29.553Z,30.85
2019-04-09T15:20:00.228Z,29.51
2019-04-09T15:22:30.652Z,25.67
2019-04-09T15:25:00.880Z,27.19
2019-04-09T15:27:31.497Z,28.31
2019-04-09T15:30:02.314Z,28.77
2019-04-09T15:32:33.230Z,29.00
2019-04-09T15:35:03.609Z,26.98
2019-04-09T15:37:33.994Z,27.29
2019-04-09T15:40:04.733Z,28.14
2019-04-09T15:42:35.155Z,27.78
2019-04-09T15:45:07.017Z,27.85
2019-04-09T15:47:37.892Z,27.85
2019-04-09T15:50:09.860Z,28.15
2019-04-09T15:52:40.817Z,26.92
2019-04-09T15:55:14.077Z,28.07
2019-04-09T15:57:45.878Z,27.71
2019-04-09T16:00:16.455Z,26.44
2019-04-09T16:02:47.455Z,25.55
2019-04-09T16:05:18.409Z,26.50
2019-04-09T16:07:49.088Z,28.02
2019-04-09T16:10:22.087Z,26.79
2019-04-09T16:12:52.071Z,26.81
2019-04-09T16:15:23.117Z,26.84
2019-04-09T16:17:53.494Z,28.33
2019-04-09T16:20:24.212Z,26.90
2019-04-09T16:22:56.236Z,25.36
2019-04-09T16:25:26.575Z,25.47
2019-04-09T16:27:57.356Z,24.21
2019-04-09T16:30:29.136Z,25.39
2019-04-09T16:33:10.995Z,25.92
2019-04-09T16:35:33.110Z,25.16
2019-04-09T16:38:03.849Z,24.43
2019-04-09T16:40:35.376Z,24.02
2019-04-09T16:43:06.456Z,24.45
2019-04-09T16:45:37.643Z,24.42
2019-04-09T16:48:08.702Z,23.40
2019-04-09T16:50:39.718Z,22.95
2019-04-09T16:53:11.148Z,21.49
2019-04-09T16:55:43.441Z,20.71
2019-04-09T16:58:15.022Z,18.30
2019-04-09T17:00:47.181Z,16.31
2019-04-09T17:03:28.817Z,15.51
2019-04-09T17:05:50.717Z,14.64
2019-04-09T17:08:21.148Z,14.21
2019-04-09T17:10:51.707Z,13.87
2019-04-09T17:13:22.559Z,13.66
2019-04-09T17:15:53.277Z,13.52
2019-04-09T17:18:25.146Z,13.26
2019-04-09T17:20:56.233Z,13.06
2019-04-09T17:23:27.460Z,13.00
2019-04-09T17:25:58.517Z,12.92
2019-04-09T17:28:30.160Z,12.80
2019-04-09T17:31:01.153Z,12.68
2019-04-09T17:33:32.767Z,12.48
2019-04-09T17:36:09.600Z,12.41
2019-04-09T17:38:40.024Z,12.26
2019-04-09T17:41:10.752Z,12.23
2019-04-09T17:43:41.149Z,12.12
2019-04-09T17:46:11.714Z,12.03
2019-04-09T17:48:42.370Z,11.94
2019-04-09T17:51:12.980Z,11.80
2019-04-09T17:53:43.545Z,11.72
2019-04-09T17:56:17.295Z,11.57
2019-04-09T17:58:49.306Z,11.49
2019-04-09T18:01:22.994Z,11.40
2019-04-09T18:03:53.730Z,11.38
2019-04-09T18:06:25.246Z,11.31
2019-04-09T18:08:55.890Z,11.20
2019-04-09T18:11:27.151Z,11.14
2019-04-09T18:13:58.307Z,11.03
2019-04-09T18:16:28.726Z,10.93
2019-04-09T18:18:58.983Z,10.86
2019-04-09T18:21:30.221Z,10.74
2019-04-09T18:24:00.663Z,10.64
2019-04-09T18:26:32.607Z,10.60
2019-04-09T18:29:05.177Z,10.56
2019-04-09T18:31:36.718Z,10.43
2019-04-09T18:34:09.065Z,10.32
2019-04-09T18:36:39.377Z,10.34
2019-04-09T18:39:12.172Z,10.33
2019-04-09T18:41:42.873Z,10.16
2019-04-09T18:44:14.138Z,10.12
2019-04-09T18:46:45.299Z,10.02
2019-04-09T18:49:15.479Z,9.91
2019-04-09T18:51:46.915Z,9.88
2019-04-09T18:54:17.863Z,9.81
2019-04-09T18:56:49.828Z,9.78
2019-04-09T18:59:21.184Z,9.78
2019-04-09T19:01:52.820Z,9.75
2019-04-09T19:04:24.120Z,9.60
2019-04-09T19:06:55.786Z,9.50
2019-04-09T19:09:26.441Z,9.44
2019-04-09T19:11:58.242Z,9.36
2019-04-09T19:14:28.682Z,9.36
2019-04-09T19:16:59.052Z,9.33
2019-04-09T19:19:30.160Z,9.35
2019-04-09T19:22:01.311Z,9.30
2019-04-09T19:24:31.956Z,9.30
2019-04-09T19:27:03.303Z,9.25
2019-04-09T19:29:33.516Z,9.16
2019-04-09T19:32:04.109Z,9.09
2019-04-09T19:34:34.407Z,9.15
2019-04-09T19:37:05.079Z,9.16
2019-04-09T19:39:37.321Z,9.13
2019-04-09T19:42:14.867Z,9.10
2019-04-09T19:44:40.210Z,9.02
2019-04-09T19:47:11.353Z,8.96
2019-04-09T19:49:41.649Z,8.99
2019-04-09T19:52:12.336Z,8.88
2019-04-09T19:54:43.177Z,8.82
2019-04-09T19:57:15.538Z,8.81
2019-04-09T19:59:46.136Z,8.74
2019-04-09T20:02:17.373Z,8.78
2019-04-09T20:04:47.589Z,8.74
2019-04-09T20:07:18.359Z,8.65
2019-04-09T20:09:50.418Z,8.61
2019-04-09T20:12:21.619Z,8.61
2019-04-09T20:14:51.847Z,8.52
2019-04-09T20:17:23.674Z,8.42
2019-04-09T20:19:54.222Z,8.29
2019-04-09T20:22:25.501Z,8.28
2019-04-09T20:24:56.127Z,8.28
2019-04-09T20:27:27.004Z,8.27
2019-04-09T20:29:57.795Z,8.29
2019-04-09T20:32:28.058Z,8.34
2019-04-09T20:35:04.245Z,8.28
2019-04-09T20:37:30.189Z,8.24
2019-04-09T20:40:00.415Z,8.25
2019-04-09T20:42:30.932Z,8.14
2019-04-09T20:45:02.550Z,8.09
2019-04-09T20:47:33.055Z,8.12
2019-04-09T20:50:03.341Z,8.10
2019-04-09T20:52:33.875Z,8.22
2019-04-09T20:55:07.077Z,8.32
2019-04-09T20:57:37.881Z,8.47
2019-04-09T21:00:40.856Z,8.57
2019-04-09T21:03:35.783Z,8.72
2019-04-09T21:06:12.310Z,8.82
2019-04-09T21:08:43.426Z,8.90
2019-04-09T21:11:13.708Z,9.03
2019-04-09T21:13:44.890Z,9.13
2019-04-09T21:16:16.114Z,9.26
2019-04-09T21:18:46.399Z,9.42
2019-04-09T21:21:16.956Z,9.54
2019-04-09T21:23:47.317Z,9.59
2019-04-09T21:26:17.965Z,9.57
2019-04-09T21:28:48.219Z,9.53
2019-04-09T21:31:19.691Z,9.57
2019-04-09T21:33:50.890Z,9.52
2019-04-09T21:36:22.732Z,9.54
2019-04-09T21:38:54.269Z,9.53
2019-04-09T21:41:24.930Z,9.55
2019-04-09T21:43:56.143Z,9.56
2019-04-09T21:46:29.217Z,9.45
2019-04-09T21:48:58.519Z,9.42
2019-04-09T21:51:28.791Z,9.36
2019-04-09T21:54:02.203Z,9.43
2019-04-09T21:56:31.196Z,9.43
2019-04-09T21:59:01.771Z,9.41
2019-04-09T22:01:33.466Z,9.36
2019-04-09T22:04:03.798Z,9.35
2019-04-09T22:06:35.658Z,9.32
2019-04-09T22:09:10.186Z,9.31
2019-04-09T22:11:40.914Z,9.25
2019-04-09T22:14:12.329Z,9.11
2019-04-09T22:16:43.288Z,9.07
2019-04-09T22:19:14.625Z,8.93
2019-04-09T22:21:44.990Z,9.02
2019-04-09T22:24:16.023Z,9.01
2019-04-09T22:26:46.284Z,8.90
2019-04-09T22:29:16.908Z,8.86
2019-04-09T22:31:47.496Z,8.79
2019-04-09T22:34:18.446Z,8.70
2019-04-09T22:36:48.972Z,8.76
2019-04-09T22:39:19.219Z,8.82
2019-04-09T22:41:49.994Z,8.89
2019-04-09T22:44:20.565Z,8.90
2019-04-09T22:46:52.934Z,8.99
2019-04-09T22:49:24.457Z,9.01
2019-04-09T22:51:55.149Z,9.04
2019-04-09T22:54:25.340Z,9.06
2019-04-09T22:56:55.707Z,9.09
2019-04-09T22:59:26.391Z,9.03
2019-04-09T23:02:10.298Z,9.03
2019-04-09T23:04:50.874Z,9.04
2019-04-09T23:07:38.935Z,9.05
2019-04-09T23:10:28.007Z,9.14
2019-04-09T23:13:00.484Z,9.14
2019-04-09T23:15:35.115Z,9.17
2019-04-09T23:18:05.432Z,9.25
2019-04-09T23:20:36.943Z,9.27
2019-04-09T23:23:08.922Z,9.23
2019-04-09T23:25:39.324Z,9.18
2019-04-09T23:28:10.726Z,9.15
2019-04-09T23:30:41.924Z,9.19
2019-04-09T23:33:12.421Z,9.21
2019-04-09T23:35:43.380Z,9.23
2019-04-09T23:38:14.607Z,9.20
2019-04-09T23:40:45.755Z,9.18
2019-04-09T23:43:17.490Z,9.20
2019-04-09T23:45:48.601Z,9.30
2019-04-09T23:48:22.047Z,9.27
2019-04-09T23:50:52.290Z,9.28
2019-04-09T23:53:23.177Z,9.27
2019-04-09T23:55:53.732Z,9.28
2019-04-09T23:58:24.956Z,9.29
